Time;durP1;ratioP1;P1;durP2;ratioP2;P2;SDS_P1;SDS_P2;PMS_P1;PMS_P2;Temp;Humidity;BMP_temperature;BMP_pressure;BME280_temperature;BME280_humidity;BME280_pressure;Samples;Min_cycle;Max_cycle;Signal;HPM_P1;HPM_P2
2023/05/12 00:00:47;;;;;;;38.70;18.13;;;;;;;;;;5048080;28;20213;-73
2023/05/12 00:03:12;;;;;;;39.85;18.75;;;;;;;;;;5037943;28;20280;-73
2023/05/12 00:05:38;;;;;;;40.28;20.25;;;;;;;;;;5033795;28;20265;-72
2023/05/12 00:08:03;;;;;;;41.10;18.80;;;;;;;;;;5042166;28;20216;-72
2023/05/12 00:10:29;;;;;;;39.53;19.30;;;;;;;;;;5049384;28;20202;-72
2023/05/12 00:12:54;;;;;;;39.50;18.83;;;;;;;;;;5042918;28;20182;-72
2023/05/12 00:15:20;;;;;;;43.97;19.02;;;;;;;;;;5044505;28;20181;-72
2023/05/12 00:17:46;;;;;;;43.05;19.65;;;;;;;;;;5030968;28;20220;-72
2023/05/12 00:20:11;;;;;;;39.60;18.70;;;;;;;;;;5047211;28;20200;-72
2023/05/12 00:22:40;;;;;;;43.38;19.50;;;;;;;;;;5046459;28;20255;-72
2023/05/12 00:25:06;;;;;;;44.28;20.67;;;;;;;;;;5051797;28;20679;-72
2023/05/12 00:27:31;;;;;;;42.90;20.80;;;;;;;;;;5043944;28;20190;-72
2023/05/12 00:29:57;;;;;;;47.03;21.05;;;;;;;;;;5041362;28;20259;-72
2023/05/12 00:32:23;;;;;;;46.15;21.23;;;;;;;;;;5047303;28;20260;-72
2023/05/12 00:34:49;;;;;;;43.85;22.23;;;;;;;;;;5042882;28;20551;-72
2023/05/12 00:37:15;;;;;;;47.00;22.52;;;;;;;;;;5031839;28;20185;-72
2023/05/12 00:39:41;;;;;;;50.25;23.40;;;;;;;;;;5031133;28;20190;-71
2023/05/12 00:42:06;;;;;;;52.85;23.42;;;;;;;;;;5034036;28;20625;-71
2023/05/12 00:44:32;;;;;;;49.88;23.25;;;;;;;;;;5037651;28;20189;-71
2023/05/12 00:46:57;;;;;;;51.53;22.52;;;;;;;;;;5048008;28;20233;-72
2023/05/12 00:49:25;;;;;;;45.22;21.33;;;;;;;;;;5047808;28;20196;-72
2023/05/12 00:51:50;;;;;;;44.33;21.15;;;;;;;;;;5042367;28;20197;-71
2023/05/12 00:54:16;;;;;;;47.75;23.33;;;;;;;;;;5041538;28;20334;-71
2023/05/12 00:56:41;;;;;;;48.47;22.77;;;;;;;;;;5047222;28;20299;-71
2023/05/12 00:59:07;;;;;;;46.03;21.63;;;;;;;;;;5036599;28;20182;-71
2023/05/12 01:01:33;;;;;;;50.13;22.15;;;;;;;;;;5045829;28;20209;-72
2023/05/12 01:04:00;;;;;;;50.45;22.92;;;;;;;;;;5047725;28;20185;-71
2023/05/12 01:06:52;;;;;;;51.20;23.52;;;;;;;;;;5043556;28;20520;-71
2023/05/12 01:09:18;;;;;;;54.55;24.23;;;;;;;;;;5028617;28;20202;-71
2023/05/12 01:11:43;;;;;;;53.60;24.52;;;;;;;;;;5046857;28;20189;-71
2023/05/12 01:14:08;;;;;;;51.60;24.55;;;;;;;;;;5047335;28;20246;-71
2023/05/12 01:16:39;;;;;;;52.65;25.02;;;;;;;;;;5044081;28;20277;-71
2023/05/12 01:19:09;;;;;;;52.85;25.20;;;;;;;;;;5037109;28;20211;-71
2023/05/12 01:21:34;;;;;;;60.67;26.58;;;;;;;;;;5047189;28;20244;-71
2023/05/12 01:24:06;;;;;;;57.65;25.85;;;;;;;;;;5046384;28;20266;-71
2023/05/12 01:26:32;;;;;;;57.22;25.85;;;;;;;;;;5047238;28;20195;-71
2023/05/12 01:29:00;;;;;;;53.63;26.73;;;;;;;;;;5043986;28;20257;-71
2023/05/12 01:31:25;;;;;;;62.42;28.15;;;;;;;;;;5046861;28;20541;-70
2023/05/12 01:33:51;;;;;;;59.97;27.23;;;;;;;;;;5038284;28;20185;-71
2023/05/12 01:36:16;;;;;;;59.53;26.85;;;;;;;;;;5051503;28;20295;-70
2023/05/12 01:38:42;;;;;;;63.90;27.92;;;;;;;;;;5035146;28;20184;-70
2023/05/12 01:41:07;;;;;;;64.05;27.58;;;;;;;;;;5042307;28;20205;-70
2023/05/12 01:43:32;;;;;;;63.97;27.40;;;;;;;;;;5035808;28;20239;-69
2023/05/12 01:45:58;;;;;;;62.10;28.73;;;;;;;;;;5045437;28;20241;-70
2023/05/12 01:48:23;;;;;;;58.95;27.63;;;;;;;;;;5055775;28;20284;-70
2023/05/12 01:50:48;;;;;;;68.15;28.17;;;;;;;;;;5045820;28;20645;-69
2023/05/12 01:53:14;;;;;;;62.13;28.58;;;;;;;;;;5031661;28;20232;-70
2023/05/12 01:55:39;;;;;;;64.95;29.48;;;;;;;;;;5044300;28;20255;-69
2023/05/12 01:58:04;;;;;;;67.93;29.50;;;;;;;;;;5035521;28;20748;-70
2023/05/12 02:00:30;;;;;;;65.80;28.15;;;;;;;;;;5042257;28;20338;-70
2023/05/12 02:02:55;;;;;;;69.10;30.73;;;;;;;;;;5045430;28;20205;-70
2023/05/12 02:05:21;;;;;;;67.40;30.50;;;;;;;;;;5041664;28;20276;-70
2023/05/12 02:07:46;;;;;;;71.75;31.15;;;;;;;;;;5035182;28;20541;-70
2023/05/12 02:10:11;;;;;;;74.05;31.30;;;;;;;;;;5044768;28;20239;-70
2023/05/12 02:12:37;;;;;;;77.55;32.55;;;;;;;;;;5046849;28;20235;-71
2023/05/12 02:15:03;;;;;;;73.35;31.02;;;;;;;;;;5048124;28;20190;-70
2023/05/12 02:17:28;;;;;;;84.15;33.47;;;;;;;;;;5053715;28;20243;-70
2023/05/12 02:19:54;;;;;;;79.82;33.15;;;;;;;;;;5046535;28;20285;-71
2023/05/12 02:22:19;;;;;;;83.00;34.78;;;;;;;;;;5037881;28;20305;-70
2023/05/12 02:24:44;;;;;;;80.53;34.25;;;;;;;;;;5040822;28;20224;-71
2023/05/12 02:27:10;;;;;;;91.38;36.00;;;;;;;;;;5041750;28;20189;-71
2023/05/12 02:29:36;;;;;;;82.25;34.53;;;;;;;;;;5045865;28;20193;-71
2023/05/12 02:32:02;;;;;;;80.05;35.38;;;;;;;;;;5044281;28;20692;-71
2023/05/12 02:34:27;;;;;;;80.68;35.78;;;;;;;;;;5040404;28;20186;-71
2023/05/12 02:36:53;;;;;;;85.45;35.33;;;;;;;;;;5045128;28;20277;-71
2023/05/12 02:39:18;;;;;;;80.22;35.15;;;;;;;;;;5041860;28;20182;-70
2023/05/12 02:41:43;;;;;;;88.38;36.28;;;;;;;;;;5031188;28;20214;-71
2023/05/12 02:44:09;;;;;;;81.20;36.28;;;;;;;;;;5041328;28;20196;-71
2023/05/12 02:46:34;;;;;;;88.32;35.50;;;;;;;;;;5041317;28;20256;-71
2023/05/12 02:48:59;;;;;;;84.90;34.85;;;;;;;;;;5043032;28;20652;-70
2023/05/12 02:51:25;;;;;;;85.65;36.35;;;;;;;;;;5050165;28;20189;-70
2023/05/12 02:53:50;;;;;;;87.32;38.58;;;;;;;;;;5034719;28;20192;-70
2023/05/12 02:56:16;;;;;;;90.18;36.92;;;;;;;;;;5038188;28;20190;-70
2023/05/12 02:58:41;;;;;;;83.57;38.33;;;;;;;;;;5039422;28;20456;-70
2023/05/12 03:01:07;;;;;;;86.68;38.00;;;;;;;;;;5042596;28;20707;-70
2023/05/12 03:03:32;;;;;;;86.07;38.85;;;;;;;;;;5029540;28;20277;-70
2023/05/12 03:05:58;;;;;;;94.63;40.88;;;;;;;;;;5042896;28;20190;-70
2023/05/12 03:08:23;;;;;;;92.72;39.53;;;;;;;;;;5031116;28;20194;-70
2023/05/12 03:10:49;;;;;;;90.72;40.50;;;;;;;;;;5034592;28;20277;-71
2023/05/12 03:13:14;;;;;;;90.63;40.72;;;;;;;;;;5060058;28;20196;-71
2023/05/12 03:15:40;;;;;;;86.13;38.72;;;;;;;;;;5040568;28;20231;-70
2023/05/12 03:18:05;;;;;;;90.45;40.85;;;;;;;;;;5031615;28;20274;-70
2023/05/12 03:20:30;;;;;;;92.80;41.10;;;;;;;;;;5043313;28;20569;-70
2023/05/12 03:22:56;;;;;;;96.25;42.08;;;;;;;;;;5028848;28;20206;-70
2023/05/12 03:25:22;;;;;;;94.63;41.60;;;;;;;;;;5036699;28;20273;-69
2023/05/12 03:27:47;;;;;;;96.47;41.90;;;;;;;;;;5048315;28;20193;-70
2023/05/12 03:30:13;;;;;;;95.70;42.53;;;;;;;;;;5049610;28;20217;-71
2023/05/12 03:32:38;;;;;;;93.50;41.35;;;;;;;;;;5036713;28;20228;-70
2023/05/12 03:35:05;;;;;;;96.20;41.13;;;;;;;;;;5036806;28;20186;-70
2023/05/12 03:37:30;;;;;;;90.55;41.50;;;;;;;;;;5035774;28;20189;-70
2023/05/12 03:39:56;;;;;;;83.72;38.60;;;;;;;;;;5033926;28;20228;-70
2023/05/12 03:42:22;;;;;;;93.55;40.65;;;;;;;;;;5048961;28;20205;-70
2023/05/12 03:44:52;;;;;;;88.72;41.53;;;;;;;;;;5049617;28;20701;-71
2023/05/12 03:47:17;;;;;;;96.38;41.67;;;;;;;;;;5037622;28;20226;-71
2023/05/12 03:49:42;;;;;;;95.60;42.95;;;;;;;;;;5043180;28;20242;-70
2023/05/12 03:52:08;;;;;;;89.88;40.75;;;;;;;;;;5041813;28;20191;-71
2023/05/12 03:54:33;;;;;;;91.28;41.75;;;;;;;;;;5034754;28;20247;-72
2023/05/12 03:56:59;;;;;;;91.22;42.05;;;;;;;;;;5046323;28;20194;-71
2023/05/12 03:59:24;;;;;;;95.60;43.33;;;;;;;;;;5044868;28;20189;-70
2023/05/12 04:01:52;;;;;;;92.68;42.13;;;;;;;;;;5044645;28;20217;-70
2023/05/12 04:04:17;;;;;;;91.85;40.75;;;;;;;;;;5044400;28;20200;-71
2023/05/12 04:06:43;;;;;;;91.50;41.65;;;;;;;;;;5043072;28;20182;-70
2023/05/12 04:09:09;;;;;;;90.20;41.42;;;;;;;;;;5041258;28;20297;-70
2023/05/12 04:11:34;;;;;;;88.45;41.80;;;;;;;;;;5042673;28;20182;-72
2023/05/12 04:13:59;;;;;;;93.60;43.40;;;;;;;;;;5038982;28;20185;-71
2023/05/12 04:16:25;;;;;;;93.25;43.20;;;;;;;;;;5040126;28;20672;-71
2023/05/12 04:18:50;;;;;;;88.22;41.83;;;;;;;;;;5031525;28;20225;-71
2023/05/12 04:21:16;;;;;;;90.18;43.15;;;;;;;;;;5041787;28;20209;-72
2023/05/12 04:23:41;;;;;;;88.97;42.20;;;;;;;;;;5044018;28;20209;-71
2023/05/12 04:26:06;;;;;;;79.95;39.35;;;;;;;;;;5033603;28;20203;-71
2023/05/12 04:28:32;;;;;;;91.72;43.20;;;;;;;;;;5044464;28;20182;-71
2023/05/12 04:31:02;;;;;;;88.47;42.10;;;;;;;;;;5029854;28;20700;-71
2023/05/12 04:33:28;;;;;;;86.07;42.13;;;;;;;;;;5031488;28;20186;-72
2023/05/12 04:35:56;;;;;;;86.78;41.72;;;;;;;;;;5032099;28;20267;-71
2023/05/12 04:38:22;;;;;;;87.72;42.60;;;;;;;;;;5033126;28;20193;-72
2023/05/12 04:40:47;;;;;;;85.75;40.63;;;;;;;;;;5034705;28;20552;-71
2023/05/12 04:43:12;;;;;;;77.72;40.22;;;;;;;;;;5049041;28;20272;-71
2023/05/12 04:45:38;;;;;;;85.13;39.88;;;;;;;;;;5046334;28;21123;-71
2023/05/12 04:48:03;;;;;;;82.65;41.15;;;;;;;;;;5029533;28;20253;-72
2023/05/12 04:50:29;;;;;;;76.07;40.25;;;;;;;;;;5047862;28;20201;-71
2023/05/12 04:52:55;;;;;;;77.65;39.65;;;;;;;;;;5043851;28;20799;-73
2023/05/12 04:55:21;;;;;;;73.18;37.47;;;;;;;;;;5025211;28;20269;-72
2023/05/12 04:57:46;;;;;;;77.80;39.38;;;;;;;;;;5034782;28;20190;-70
2023/05/12 05:00:12;;;;;;;82.10;39.75;;;;;;;;;;5027610;28;20517;-70
2023/05/12 05:02:38;;;;;;;80.55;40.95;;;;;;;;;;5033064;28;20237;-70
2023/05/12 05:05:03;;;;;;;73.25;38.90;;;;;;;;;;5039581;28;20189;-71
2023/05/12 05:07:28;;;;;;;75.07;38.83;;;;;;;;;;5046471;28;20675;-71
2023/05/12 05:09:54;;;;;;;78.05;40.00;;;;;;;;;;5042203;28;20557;-70
2023/05/12 05:12:19;;;;;;;76.80;38.28;;;;;;;;;;5037918;28;20185;-70
2023/05/12 05:14:45;;;;;;;71.88;37.95;;;;;;;;;;5040621;28;20197;-70
2023/05/12 05:17:11;;;;;;;72.78;39.80;;;;;;;;;;5028596;28;20514;-70
2023/05/12 05:19:36;;;;;;;70.70;38.35;;;;;;;;;;5027951;28;20205;-71
2023/05/12 05:22:02;;;;;;;65.47;37.25;;;;;;;;;;5035903;28;20251;-71
2023/05/12 05:24:27;;;;;;;69.57;37.75;;;;;;;;;;5046533;28;20272;-71
2023/05/12 05:26:53;;;;;;;67.50;39.03;;;;;;;;;;5043785;28;20604;-70
2023/05/12 05:29:18;;;;;;;65.97;37.33;;;;;;;;;;5036024;28;20233;-70
2023/05/12 05:31:43;;;;;;;67.18;38.35;;;;;;;;;;5030310;28;20193;-70
2023/05/12 05:34:09;;;;;;;67.25;36.85;;;;;;;;;;5031215;28;20262;-70
2023/05/12 05:36:34;;;;;;;71.80;39.08;;;;;;;;;;5060784;28;20201;-70
2023/05/12 05:38:59;;;;;;;60.67;37.30;;;;;;;;;;5038116;28;20779;-70
2023/05/12 05:41:25;;;;;;;64.55;36.90;;;;;;;;;;5033800;28;20295;-71
2023/05/12 05:43:50;;;;;;;61.42;36.35;;;;;;;;;;5027452;28;20194;-70
2023/05/12 05:46:16;;;;;;;61.63;36.40;;;;;;;;;;5034931;28;20225;-70
2023/05/12 05:48:41;;;;;;;61.35;36.05;;;;;;;;;;5037156;28;20197;-71
2023/05/12 05:51:07;;;;;;;64.63;36.97;;;;;;;;;;5045272;28;20193;-71
2023/05/12 05:53:32;;;;;;;58.67;36.30;;;;;;;;;;5041285;28;20411;-70
2023/05/12 05:55:58;;;;;;;57.10;35.63;;;;;;;;;;5040501;28;20682;-70
2023/05/12 05:58:23;;;;;;;61.67;36.03;;;;;;;;;;5042346;28;20193;-71
2023/05/12 06:00:49;;;;;;;53.70;33.78;;;;;;;;;;5034874;28;20718;-70
2023/05/12 06:03:14;;;;;;;53.55;34.22;;;;;;;;;;5048563;28;20191;-71
2023/05/12 06:05:41;;;;;;;54.13;33.42;;;;;;;;;;5038412;28;20189;-70
2023/05/12 06:08:08;;;;;;;53.85;33.63;;;;;;;;;;5040915;28;20193;-70
2023/05/12 06:10:33;;;;;;;51.42;33.60;;;;;;;;;;5044716;28;20196;-72
2023/05/12 06:12:59;;;;;;;52.70;33.15;;;;;;;;;;5035834;28;20265;-70
2023/05/12 06:15:24;;;;;;;48.38;32.42;;;;;;;;;;5045353;28;20259;-71
2023/05/12 06:17:50;;;;;;;49.20;32.85;;;;;;;;;;5038532;28;20624;-70
2023/05/12 06:20:15;;;;;;;48.00;32.15;;;;;;;;;;5043448;28;20226;-70
2023/05/12 06:22:41;;;;;;;45.90;30.85;;;;;;;;;;5047618;28;20507;-70
2023/05/12 06:25:07;;;;;;;44.83;29.90;;;;;;;;;;5039757;28;20634;-70
2023/05/12 06:27:32;;;;;;;42.13;28.73;;;;;;;;;;5040429;28;20186;-70
2023/05/12 06:29:57;;;;;;;43.10;29.58;;;;;;;;;;5042612;28;20648;-70
2023/05/12 06:32:23;;;;;;;43.08;30.00;;;;;;;;;;5049126;28;20266;-70
2023/05/12 06:34:48;;;;;;;40.00;28.10;;;;;;;;;;5044066;28;20260;-70
2023/05/12 06:37:14;;;;;;;39.10;26.02;;;;;;;;;;5048539;28;20197;-70
2023/05/12 06:39:39;;;;;;;37.78;27.40;;;;;;;;;;5048099;28;20193;-70
2023/05/12 06:42:05;;;;;;;38.58;26.42;;;;;;;;;;5045505;28;20284;-70
2023/05/12 06:44:30;;;;;;;35.30;25.83;;;;;;;;;;5042501;28;20185;-70
2023/05/12 06:46:55;;;;;;;34.42;25.20;;;;;;;;;;5047450;28;20244;-71
2023/05/12 06:49:21;;;;;;;37.63;24.42;;;;;;;;;;5042832;28;20268;-71
2023/05/12 06:51:46;;;;;;;36.42;24.83;;;;;;;;;;5031905;28;20579;-70
2023/05/12 06:54:11;;;;;;;29.88;23.33;;;;;;;;;;5041944;28;20254;-71
2023/05/12 06:56:37;;;;;;;33.30;24.40;;;;;;;;;;5033946;28;20665;-70
2023/05/12 06:59:03;;;;;;;32.30;23.55;;;;;;;;;;5039802;28;20280;-70
2023/05/12 07:01:30;;;;;;;34.90;23.50;;;;;;;;;;5045383;28;20213;-71
2023/05/12 07:03:56;;;;;;;32.50;23.23;;;;;;;;;;5045961;28;20288;-71
2023/05/12 07:06:22;;;;;;;33.40;22.30;;;;;;;;;;5037164;28;20403;-71
2023/05/12 07:08:47;;;;;;;30.05;23.08;;;;;;;;;;5042378;28;20302;-71
2023/05/12 07:11:18;;;;;;;30.08;22.58;;;;;;;;;;5049464;28;20247;-71
2023/05/12 07:13:46;;;;;;;29.75;22.15;;;;;;;;;;5043671;28;20186;-71
2023/05/12 07:16:11;;;;;;;30.60;21.55;;;;;;;;;;5028631;28;20190;-71
2023/05/12 07:18:37;;;;;;;27.75;20.42;;;;;;;;;;5041873;28;20530;-71
2023/05/12 07:21:02;;;;;;;33.42;22.50;;;;;;;;;;5036814;28;20684;-71
2023/05/12 07:23:28;;;;;;;28.90;21.42;;;;;;;;;;5046771;28;20296;-70
2023/05/12 07:25:53;;;;;;;29.58;21.58;;;;;;;;;;5040887;28;20196;-70
2023/05/12 07:28:19;;;;;;;31.25;22.20;;;;;;;;;;5033909;28;20194;-70
2023/05/12 07:30:45;;;;;;;28.67;21.70;;;;;;;;;;5036606;28;20189;-70
2023/05/12 07:33:10;;;;;;;27.60;20.85;;;;;;;;;;5043645;28;20212;-71
2023/05/12 07:35:35;;;;;;;29.13;22.08;;;;;;;;;;5032614;28;20596;-71
2023/05/12 07:38:02;;;;;;;31.77;23.52;;;;;;;;;;5034228;28;20198;-71
2023/05/12 07:40:27;;;;;;;30.05;21.80;;;;;;;;;;5038024;28;20194;-70
2023/05/12 07:42:53;;;;;;;30.95;21.77;;;;;;;;;;5037292;28;20587;-71
2023/05/12 07:45:21;;;;;;;29.83;21.50;;;;;;;;;;5030212;28;20193;-71
2023/05/12 07:47:49;;;;;;;27.45;21.70;;;;;;;;;;5033499;28;20230;-71
2023/05/12 07:50:15;;;;;;;26.70;21.02;;;;;;;;;;5046395;28;20192;-71
2023/05/12 07:52:48;;;;;;;28.45;20.08;;;;;;;;;;5039356;28;20186;-70
2023/05/12 07:55:15;;;;;;;26.58;19.10;;;;;;;;;;5046716;28;20200;-70
2023/05/12 07:57:40;;;;;;;26.45;20.10;;;;;;;;;;5037168;28;20189;-71
2023/05/12 08:00:08;;;;;;;24.73;19.10;;;;;;;;;;5036228;28;20324;-71
2023/05/12 08:02:33;;;;;;;23.23;18.60;;;;;;;;;;5037719;28;20208;-71
2023/05/12 08:04:59;;;;;;;23.88;17.90;;;;;;;;;;5038233;28;20547;-71
2023/05/12 08:07:24;;;;;;;22.40;16.73;;;;;;;;;;5046991;28;20290;-71
2023/05/12 08:09:49;;;;;;;19.70;15.20;;;;;;;;;;5048583;28;20196;-71
2023/05/12 08:12:15;;;;;;;19.38;15.52;;;;;;;;;;5040554;28;20193;-71
2023/05/12 08:14:40;;;;;;;17.85;14.98;;;;;;;;;;5046475;28;20186;-71
2023/05/12 08:17:06;;;;;;;17.20;14.00;;;;;;;;;;5047215;28;20191;-71
2023/05/12 08:19:31;;;;;;;19.83;15.13;;;;;;;;;;5040196;28;20276;-71
2023/05/12 08:21:57;;;;;;;17.33;14.75;;;;;;;;;;5046348;28;20576;-71
2023/05/12 08:24:22;;;;;;;16.60;13.40;;;;;;;;;;5039143;28;20194;-71
2023/05/12 08:26:47;;;;;;;18.77;14.48;;;;;;;;;;5027937;28;20244;-71
2023/05/12 08:29:14;;;;;;;17.25;14.13;;;;;;;;;;5051839;28;20244;-70
2023/05/12 08:31:39;;;;;;;19.67;13.73;;;;;;;;;;5031747;28;20245;-71
2023/05/12 08:34:05;;;;;;;15.07;12.32;;;;;;;;;;5046782;28;20723;-71
2023/05/12 08:36:31;;;;;;;15.05;12.68;;;;;;;;;;5032484;28;20272;-71
2023/05/12 08:38:57;;;;;;;15.13;12.43;;;;;;;;;;5038416;28;20185;-71
2023/05/12 08:41:38;;;;;;;14.00;12.40;;;;;;;;;;5042311;28;20209;-71
2023/05/12 08:44:04;;;;;;;15.13;12.30;;;;;;;;;;5040439;28;20276;-71
2023/05/12 08:46:31;;;;;;;13.38;11.10;;;;;;;;;;5047123;28;20275;-71
2023/05/12 08:48:59;;;;;;;13.57;10.18;;;;;;;;;;5046250;28;20189;-70
2023/05/12 08:51:27;;;;;;;12.80;9.75;;;;;;;;;;5032738;28;20194;-70
2023/05/12 08:53:54;;;;;;;13.18;10.35;;;;;;;;;;5036900;28;20189;-71
2023/05/12 08:56:21;;;;;;;11.75;10.55;;;;;;;;;;5033867;28;20263;-70
2023/05/12 08:58:47;;;;;;;13.55;10.88;;;;;;;;;;5041290;28;20250;-71
2023/05/12 09:01:13;;;;;;;13.30;10.10;;;;;;;;;;5028933;28;20223;-70
2023/05/12 09:03:39;;;;;;;12.63;10.65;;;;;;;;;;5034463;28;20193;-70
2023/05/12 09:06:05;;;;;;;12.80;10.35;;;;;;;;;;5046455;28;20181;-70
2023/05/12 09:08:32;;;;;;;11.73;10.25;;;;;;;;;;5041417;28;20201;-70
2023/05/12 09:10:58;;;;;;;13.32;10.70;;;;;;;;;;5030819;28;20189;-70
2023/05/12 09:13:37;;;;;;;11.85;10.05;;;;;;;;;;5040429;28;20217;-71
2023/05/12 09:16:05;;;;;;;12.93;10.45;;;;;;;;;;5039880;28;20186;-71
2023/05/12 09:18:55;;;;;;;13.18;9.88;;;;;;;;;;5041782;28;20194;-71
2023/05/12 09:21:21;;;;;;;12.65;9.80;;;;;;;;;;5027508;28;20202;-71
2023/05/12 09:23:57;;;;;;;12.18;10.40;;;;;;;;;;5032422;28;20193;-71
2023/05/12 09:26:27;;;;;;;14.13;9.43;;;;;;;;;;5042814;28;20204;-71
2023/05/12 09:29:07;;;;;;;10.82;9.57;;;;;;;;;;5039179;28;20559;-71
2023/05/12 09:31:32;;;;;;;11.23;9.80;;;;;;;;;;5033946;28;20221;-71
2023/05/12 09:33:58;;;;;;;12.25;9.50;;;;;;;;;;5046708;28;20231;-71
2023/05/12 09:36:24;;;;;;;10.70;9.60;;;;;;;;;;5047162;28;20189;-72
2023/05/12 09:39:05;;;;;;;12.45;9.93;;;;;;;;;;5044526;28;20196;-71
2023/05/12 09:41:41;;;;;;;12.30;10.30;;;;;;;;;;5047122;28;20206;-71
2023/05/12 09:44:09;;;;;;;12.25;10.10;;;;;;;;;;5040810;28;20247;-71
2023/05/12 09:46:35;;;;;;;13.48;10.95;;;;;;;;;;5040858;28;20699;-72
2023/05/12 09:49:02;;;;;;;11.55;10.27;;;;;;;;;;5045314;28;20193;-71
2023/05/12 09:51:28;;;;;;;11.95;9.65;;;;;;;;;;5048751;28;20700;-71
2023/05/12 09:53:53;;;;;;;11.90;9.38;;;;;;;;;;5044036;28;20625;-71
2023/05/12 09:56:20;;;;;;;11.63;9.35;;;;;;;;;;5031265;28;20191;-70
2023/05/12 09:58:47;;;;;;;11.30;9.52;;;;;;;;;;5032159;28;20328;-71
2023/05/12 10:01:15;;;;;;;12.35;10.07;;;;;;;;;;5046970;28;20651;-71
2023/05/12 10:03:41;;;;;;;11.48;9.45;;;;;;;;;;5050262;28;20196;-71
2023/05/12 10:06:11;;;;;;;11.18;9.68;;;;;;;;;;5051034;28;20185;-70
2023/05/12 10:08:49;;;;;;;13.00;10.32;;;;;;;;;;5051406;28;20655;-71
2023/05/12 10:11:16;;;;;;;10.57;9.23;;;;;;;;;;5032899;28;20194;-70
2023/05/12 10:13:42;;;;;;;12.48;10.23;;;;;;;;;;5046114;28;20196;-70
2023/05/12 10:16:08;;;;;;;11.23;9.55;;;;;;;;;;5039075;28;20193;-70
2023/05/12 10:18:34;;;;;;;13.27;9.43;;;;;;;;;;5034354;28;20463;-70
2023/05/12 10:21:01;;;;;;;13.82;9.93;;;;;;;;;;5049242;28;20670;-70
2023/05/12 10:23:26;;;;;;;10.32;8.85;;;;;;;;;;5051118;28;20506;-70
2023/05/12 10:25:57;;;;;;;11.05;9.60;;;;;;;;;;5032447;28;20217;-70
2023/05/12 10:28:24;;;;;;;12.77;10.05;;;;;;;;;;5043848;28;20182;-70
2023/05/12 10:30:50;;;;;;;10.82;9.10;;;;;;;;;;5049271;28;20539;-70
2023/05/12 10:33:16;;;;;;;9.38;8.48;;;;;;;;;;5044605;28;20216;-71
2023/05/12 10:35:42;;;;;;;12.80;7.70;;;;;;;;;;5041055;28;20190;-71
2023/05/12 10:38:10;;;;;;;9.80;7.93;;;;;;;;;;5037682;28;20189;-71
2023/05/12 10:40:35;;;;;;;8.35;7.30;;;;;;;;;;5035355;28;20190;-71
2023/05/12 10:43:01;;;;;;;8.15;7.25;;;;;;;;;;5046106;28;20225;-71
2023/05/12 10:45:27;;;;;;;10.13;7.00;;;;;;;;;;5041854;28;20185;-70
2023/05/12 10:48:03;;;;;;;9.55;6.63;;;;;;;;;;5033212;28;20325;-71
2023/05/12 10:50:29;;;;;;;8.13;6.30;;;;;;;;;;5036032;28;20279;-70
2023/05/12 10:52:56;;;;;;;8.57;7.55;;;;;;;;;;5046968;28;20264;-71
2023/05/12 10:55:40;;;;;;;10.15;8.18;;;;;;;;;;5045828;28;20280;-71
2023/05/12 10:58:10;;;;;;;7.93;7.13;;;;;;;;;;5039244;28;20189;-71
2023/05/12 11:00:43;;;;;;;10.07;7.47;;;;;;;;;;5037102;28;20221;-71
2023/05/12 11:03:16;;;;;;;9.45;6.57;;;;;;;;;;5056397;28;20213;-70
2023/05/12 11:05:43;;;;;;;9.02;6.82;;;;;;;;;;5035959;28;20194;-70
2023/05/12 11:08:09;;;;;;;6.95;6.25;;;;;;;;;;5027656;28;20281;-71
2023/05/12 11:10:34;;;;;;;6.97;6.35;;;;;;;;;;5041848;28;20561;-71
2023/05/12 11:13:01;;;;;;;8.88;5.88;;;;;;;;;;5037303;28;20308;-70
2023/05/12 11:15:27;;;;;;;7.05;5.72;;;;;;;;;;5042313;28;20194;-71
2023/05/12 11:17:52;;;;;;;8.73;6.30;;;;;;;;;;5045943;28;20195;-71
2023/05/12 11:20:22;;;;;;;8.02;6.63;;;;;;;;;;5040723;28;20684;-71
2023/05/12 11:22:48;;;;;;;8.65;7.03;;;;;;;;;;5046906;28;20622;-71
2023/05/12 11:25:14;;;;;;;8.00;6.70;;;;;;;;;;5042822;28;20186;-72
2023/05/12 11:27:45;;;;;;;8.02;7.25;;;;;;;;;;5047051;28;20205;-72
2023/05/12 11:30:11;;;;;;;8.50;7.68;;;;;;;;;;5042165;28;20197;-72
2023/05/12 11:32:36;;;;;;;10.77;7.45;;;;;;;;;;5039628;28;20190;-72
2023/05/12 11:35:12;;;;;;;9.65;8.57;;;;;;;;;;5044008;28;20190;-72
2023/05/12 11:37:42;;;;;;;11.10;9.15;;;;;;;;;;5041794;28;20189;-72
2023/05/12 11:40:25;;;;;;;10.00;8.45;;;;;;;;;;5041109;28;20275;-72
2023/05/12 11:42:52;;;;;;;15.13;9.57;;;;;;;;;;5049549;28;20209;-71
2023/05/12 11:45:27;;;;;;;12.70;8.98;;;;;;;;;;5046632;28;20228;-71
2023/05/12 11:48:04;;;;;;;12.90;10.05;;;;;;;;;;5040597;28;20225;-72
2023/05/12 11:50:30;;;;;;;10.90;9.57;;;;;;;;;;5051403;28;20197;-71
2023/05/12 11:52:56;;;;;;;10.95;9.02;;;;;;;;;;5031183;28;20244;-71
2023/05/12 11:55:23;;;;;;;8.70;7.80;;;;;;;;;;5034060;28;20256;-71
2023/05/12 11:57:57;;;;;;;10.50;8.43;;;;;;;;;;5048931;28;20710;-71
2023/05/12 12:00:41;;;;;;;10.60;8.43;;;;;;;;;;5045594;28;20724;-71
2023/05/12 12:03:11;;;;;;;10.50;7.95;;;;;;;;;;5028976;28;20245;-71
2023/05/12 12:05:38;;;;;;;8.35;7.40;;;;;;;;;;5037444;28;20229;-71
2023/05/12 12:08:06;;;;;;;9.98;8.00;;;;;;;;;;5033191;28;20193;-71
2023/05/12 12:10:31;;;;;;;9.15;7.13;;;;;;;;;;5045849;28;20189;-71
2023/05/12 12:12:58;;;;;;;10.10;7.60;;;;;;;;;;5050331;28;20196;-71
2023/05/12 12:15:23;;;;;;;6.93;6.22;;;;;;;;;;5046751;28;20447;-71
2023/05/12 12:17:49;;;;;;;10.43;6.13;;;;;;;;;;5039174;28;20252;-72
2023/05/12 12:20:16;;;;;;;6.65;5.97;;;;;;;;;;5043527;28;20728;-71
2023/05/12 12:22:42;;;;;;;9.98;6.93;;;;;;;;;;5044526;28;20269;-72
2023/05/12 12:25:07;;;;;;;9.52;5.85;;;;;;;;;;5045952;28;20189;-72
2023/05/12 12:27:33;;;;;;;9.43;7.55;;;;;;;;;;5041421;28;20196;-70
2023/05/12 12:29:58;;;;;;;6.88;6.22;;;;;;;;;;5041601;28;20189;-70
2023/05/12 12:32:24;;;;;;;9.20;6.47;;;;;;;;;;5033749;28;20222;-70
2023/05/12 12:34:49;;;;;;;7.25;6.18;;;;;;;;;;5045813;28;20276;-71
2023/05/12 12:37:15;;;;;;;8.75;6.32;;;;;;;;;;5031053;28;20224;-70
2023/05/12 12:39:40;;;;;;;6.80;6.10;;;;;;;;;;5042547;28;20197;-70
2023/05/12 12:42:05;;;;;;;8.35;5.93;;;;;;;;;;5043583;28;20213;-69
2023/05/12 12:44:31;;;;;;;8.10;5.57;;;;;;;;;;5039510;28;20193;-70
2023/05/12 12:46:56;;;;;;;7.88;5.50;;;;;;;;;;5030646;28;20280;-69
2023/05/12 12:49:21;;;;;;;6.80;5.35;;;;;;;;;;5041383;28;20190;-70
2023/05/12 12:51:47;;;;;;;5.80;5.30;;;;;;;;;;5035873;28;20200;-70
2023/05/12 12:54:13;;;;;;;6.72;5.22;;;;;;;;;;5033019;28;20283;-70
2023/05/12 12:56:39;;;;;;;7.18;5.13;;;;;;;;;;5044587;28;20246;-70
2023/05/12 12:59:05;;;;;;;7.10;4.95;;;;;;;;;;5046948;28;20276;-69
2023/05/12 13:01:32;;;;;;;8.20;4.47;;;;;;;;;;5046388;28;20898;-70
2023/05/12 13:03:59;;;;;;;6.85;5.20;;;;;;;;;;5036136;28;20247;-74
2023/05/12 13:06:24;;;;;;;5.78;4.70;;;;;;;;;;5028024;28;20389;-70
2023/05/12 13:08:50;;;;;;;5.15;4.65;;;;;;;;;;5039307;28;20210;-70
2023/05/12 13:11:16;;;;;;;8.35;4.80;;;;;;;;;;5040786;28;20196;-71
2023/05/12 13:13:41;;;;;;;6.78;4.38;;;;;;;;;;5032425;28;20284;-70
2023/05/12 13:16:07;;;;;;;8.10;5.35;;;;;;;;;;5030131;28;20530;-71
2023/05/12 13:18:32;;;;;;;7.78;4.35;;;;;;;;;;5027038;28;20198;-72
2023/05/12 13:20:58;;;;;;;6.90;4.50;;;;;;;;;;5039786;28;20198;-71
2023/05/12 13:23:23;;;;;;;5.07;3.92;;;;;;;;;;5039278;28;20217;-71
2023/05/12 13:25:50;;;;;;;4.22;3.67;;;;;;;;;;5038710;28;20606;-70
2023/05/12 13:28:16;;;;;;;5.43;4.30;;;;;;;;;;5037500;28;20531;-70
2023/05/12 13:30:42;;;;;;;7.32;4.05;;;;;;;;;;5042037;28;20222;-71
2023/05/12 13:33:08;;;;;;;6.45;4.25;;;;;;;;;;5038290;28;20231;-71
2023/05/12 13:35:33;;;;;;;5.25;3.67;;;;;;;;;;5041754;28;20193;-71
2023/05/12 13:37:59;;;;;;;4.78;3.83;;;;;;;;;;5042473;28;20216;-74
2023/05/12 13:40:24;;;;;;;7.93;3.85;;;;;;;;;;5035506;28;20196;-71
2023/05/12 13:42:50;;;;;;;4.38;3.50;;;;;;;;;;5030291;28;20239;-71
2023/05/12 13:45:15;;;;;;;5.32;3.50;;;;;;;;;;5042575;28;20684;-71
2023/05/12 13:47:40;;;;;;;6.57;3.63;;;;;;;;;;5047022;28;20249;-70
2023/05/12 13:50:06;;;;;;;5.25;3.90;;;;;;;;;;5040045;28;20583;-72
2023/05/12 13:52:32;;;;;;;5.15;3.50;;;;;;;;;;5037045;28;20213;-72
2023/05/12 13:54:57;;;;;;;5.25;3.53;;;;;;;;;;5037299;28;20311;-72
2023/05/12 13:57:23;;;;;;;3.55;3.25;;;;;;;;;;5034522;28;20194;-71
2023/05/12 13:59:50;;;;;;;5.13;3.25;;;;;;;;;;5032885;28;20309;-71
2023/05/12 14:02:16;;;;;;;3.90;3.40;;;;;;;;;;5042043;28;20284;-68
2023/05/12 14:04:41;;;;;;;4.47;3.40;;;;;;;;;;5041276;28;20584;-70
2023/05/12 14:07:06;;;;;;;4.68;3.10;;;;;;;;;;5046830;28;20190;-71
2023/05/12 14:09:32;;;;;;;6.03;3.40;;;;;;;;;;5037954;28;20233;-71
2023/05/12 14:11:58;;;;;;;6.97;3.60;;;;;;;;;;5039377;28;20216;-71
2023/05/12 14:14:24;;;;;;;5.05;3.17;;;;;;;;;;5049269;28;20216;-70
2023/05/12 14:16:49;;;;;;;4.40;3.30;;;;;;;;;;5045013;28;20653;-72
2023/05/12 14:19:15;;;;;;;6.13;3.33;;;;;;;;;;5032719;28;20213;-71